createdAt,value
2023-01-07T00:03:48.094Z,95.76
2023-01-07T00:07:59.735Z,95.87
2023-01-07T00:12:11.255Z,96.03
2023-01-07T00:16:26.413Z,96.20
2023-01-07T00:20:37.988Z,96.12
2023-01-07T00:24:49.537Z,96.45
2023-01-07T00:29:01.338Z,96.36
2023-01-07T00:33:15.502Z,96.19
2023-01-07T00:37:45.547Z,95.86
2023-01-07T00:42:15.826Z,95.92
2023-01-07T00:46:27.639Z,95.92
2023-01-07T00:50:39.848Z,95.69
2023-01-07T00:54:51.387Z,95.89
2023-01-07T00:59:02.993Z,95.94
2023-01-07T01:03:15.356Z,95.64
2023-01-07T01:07:26.966Z,95.38
2023-01-07T01:11:38.501Z,95.30
2023-01-07T01:15:50.067Z,95.17
2023-01-07T01:20:02.157Z,94.94
2023-01-07T01:24:13.710Z,95.14
2023-01-07T01:28:25.271Z,95.15
2023-01-07T01:32:37.925Z,94.75
2023-01-07T01:36:49.990Z,94.58
2023-01-07T01:41:02.453Z,94.37
2023-01-07T01:45:14.762Z,94.27
2023-01-07T01:49:31.401Z,94.37
2023-01-07T01:53:42.975Z,94.13
2023-01-07T01:57:58.263Z,93.95
2023-01-07T02:02:10.505Z,94.13
2023-01-07T02:06:26.089Z,94.11
2023-01-07T02:10:39.365Z,93.63
2023-01-07T02:15:07.661Z,93.51
2023-01-07T02:19:49.937Z,93.43
2023-01-07T02:24:16.675Z,93.24
2023-01-07T02:28:59.323Z,92.96
2023-01-07T02:33:17.088Z,92.82
2023-01-07T02:37:53.367Z,92.82
2023-01-07T02:42:21.897Z,92.84
2023-01-07T02:46:42.484Z,92.67
2023-01-07T02:50:54.184Z,92.91
2023-01-07T02:55:22.560Z,92.99
2023-01-07T02:59:50.088Z,92.92
2023-01-07T03:04:19.850Z,92.76
2023-01-07T03:08:34.482Z,92.88
2023-01-07T03:12:52.360Z,92.59
2023-01-07T03:17:09.351Z,92.57
2023-01-07T03:21:22.590Z,92.58
2023-01-07T03:25:41.824Z,92.26
2023-01-07T03:29:54.442Z,92.15
2023-01-07T03:34:15.088Z,92.43
2023-01-07T03:38:28.078Z,92.56
2023-01-07T03:42:41.867Z,92.80
2023-01-07T03:47:04.073Z,92.78
2023-01-07T03:51:15.728Z,93.00
2023-01-07T03:55:28.474Z,92.67
2023-01-07T03:59:41.563Z,92.53
2023-01-07T04:03:53.607Z,92.52
2023-01-07T04:08:05.410Z,92.82
2023-01-07T04:12:20.557Z,92.71
2023-01-07T04:16:32.481Z,92.38
2023-01-07T04:20:48.039Z,92.83
2023-01-07T04:25:00.739Z,92.69
2023-01-07T04:29:12.399Z,92.83
2023-01-07T04:33:24.038Z,93.10
2023-01-07T04:37:35.666Z,93.27
2023-01-07T04:41:47.295Z,93.18
2023-01-07T04:45:59.130Z,93.40
2023-01-07T04:50:10.811Z,93.79
2023-01-07T04:54:22.463Z,94.06
2023-01-07T04:58:34.509Z,94.01
2023-01-07T05:02:46.827Z,94.36
2023-01-07T05:06:58.478Z,94.27
2023-01-07T05:11:11.381Z,94.47
2023-01-07T05:15:27.183Z,94.36
2023-01-07T05:19:40.153Z,94.21
2023-01-07T05:23:54.599Z,94.36
2023-01-07T05:28:07.106Z,94.49
2023-01-07T05:32:22.372Z,94.42
2023-01-07T05:36:35.450Z,94.10
2023-01-07T05:40:49.905Z,94.07
2023-01-07T05:45:06.001Z,94.01
2023-01-07T05:49:17.565Z,94.04
2023-01-07T05:53:29.090Z,94.03
2023-01-07T05:57:40.602Z,93.74
2023-01-07T06:01:52.134Z,93.58
2023-01-07T06:06:07.183Z,93.31
2023-01-07T06:10:18.939Z,92.90
2023-01-07T06:14:30.498Z,92.77
2023-01-07T06:18:42.169Z,92.40
2023-01-07T06:22:54.384Z,92.32
2023-01-07T06:27:06.214Z,92.27
2023-01-07T06:31:17.917Z,91.87
2023-01-07T06:35:29.629Z,91.67
2023-01-07T06:39:41.252Z,91.29
2023-01-07T06:43:52.881Z,90.64
2023-01-07T06:48:04.807Z,90.46
2023-01-07T06:52:16.381Z,89.85
2023-01-07T06:56:27.968Z,88.89
2023-01-07T07:00:39.487Z,88.25
2023-01-07T07:04:51.342Z,88.36
2023-01-07T07:09:03.032Z,87.66
2023-01-07T07:13:14.714Z,87.54
2023-01-07T07:17:26.515Z,86.89
2023-01-07T07:21:38.083Z,86.58
2023-01-07T07:25:49.703Z,86.25
2023-01-07T07:30:01.298Z,86.16
2023-01-07T07:34:13.108Z,85.81
2023-01-07T07:38:24.761Z,85.85
2023-01-07T07:43:10.637Z,85.46
2023-01-07T07:47:11.138Z,84.73
2023-01-07T07:51:22.931Z,84.35
2023-01-07T07:55:36.835Z,83.96
2023-01-07T07:59:48.424Z,83.75
2023-01-07T08:04:00.855Z,84.14
2023-01-07T08:08:14.810Z,82.99
2023-01-07T08:12:26.375Z,83.72
2023-01-07T08:16:38.200Z,83.38
2023-01-07T08:20:50.600Z,82.47
2023-01-07T08:25:02.853Z,82.12
2023-01-07T08:29:14.605Z,82.25
2023-01-07T08:33:26.223Z,82.41
2023-01-07T08:37:37.883Z,81.76
2023-01-07T08:41:49.515Z,81.64
2023-01-07T08:46:01.086Z,81.59
2023-01-07T08:50:12.651Z,81.50
2023-01-07T08:54:24.272Z,81.28
2023-01-07T08:58:35.849Z,81.09
2023-01-07T09:03:02.528Z,80.92
2023-01-07T09:07:14.114Z,80.56
2023-01-07T09:11:25.748Z,79.94
2023-01-07T09:15:37.321Z,79.83
2023-01-07T09:19:48.885Z,79.05
2023-01-07T09:24:00.716Z,78.86
2023-01-07T09:28:12.373Z,78.29
2023-01-07T09:32:25.975Z,78.60
2023-01-07T09:36:37.627Z,77.67
2023-01-07T09:40:49.652Z,77.12
2023-01-07T09:45:29.325Z,77.04
2023-01-07T09:49:42.278Z,76.83
2023-01-07T09:53:57.086Z,76.93
2023-01-07T09:58:18.383Z,76.47
2023-01-07T10:02:50.955Z,76.25
2023-01-07T10:07:09.438Z,76.26
2023-01-07T10:11:46.830Z,75.78
2023-01-07T10:16:14.653Z,75.98
2023-01-07T10:20:51.103Z,75.25
2023-01-07T10:25:19.598Z,74.81
2023-01-07T10:29:50.898Z,74.42
2023-01-07T10:34:03.167Z,73.95
2023-01-07T10:38:19.333Z,73.69
2023-01-07T10:42:54.556Z,73.27
2023-01-07T10:47:23.858Z,73.05
2023-01-07T10:51:52.594Z,71.98
2023-01-07T10:56:31.505Z,71.42
2023-01-07T11:00:47.127Z,70.53
2023-01-07T11:05:00.145Z,69.36
2023-01-07T11:09:18.170Z,67.81
2023-01-07T11:13:33.087Z,67.33
2023-01-07T11:17:50.884Z,66.57
2023-01-07T11:22:02.554Z,66.07
2023-01-07T11:26:24.968Z,65.32
2023-01-07T11:30:37.028Z,64.59
2023-01-07T11:34:53.630Z,64.32
2023-01-07T11:39:30.011Z,64.04
2023-01-07T11:43:48.697Z,64.19
2023-01-07T11:48:02.673Z,63.56
2023-01-07T11:52:19.699Z,62.98
2023-01-07T11:56:36.163Z,62.93
2023-01-07T12:01:07.846Z,63.23
2023-01-07T12:05:26.803Z,63.02
2023-01-07T12:09:40.894Z,62.44
2023-01-07T12:13:53.219Z,62.68
2023-01-07T12:18:07.822Z,62.77
2023-01-07T12:22:47.113Z,62.83
2023-01-07T12:27:08.216Z,62.55
2023-01-07T12:31:40.731Z,62.74
2023-01-07T12:35:55.610Z,62.91
2023-01-07T12:40:21.542Z,63.33
2023-01-07T12:44:39.559Z,63.03
2023-01-07T12:49:07.882Z,63.30
2023-01-07T12:53:41.201Z,63.33
2023-01-07T12:58:15.066Z,63.19
2023-01-07T13:02:29.703Z,63.13
2023-01-07T13:06:58.874Z,63.72
2023-01-07T13:11:43.897Z,63.75
2023-01-07T13:15:59.065Z,63.88
2023-01-07T13:20:33.842Z,64.02
2023-01-07T13:25:30.353Z,63.50
2023-01-07T13:30:04.436Z,63.46
2023-01-07T13:34:28.575Z,63.74
2023-01-07T13:39:02.325Z,63.91
2023-01-07T13:43:44.849Z,64.51
2023-01-07T13:47:59.448Z,64.40
2023-01-07T13:52:17.570Z,64.89
2023-01-07T13:56:32.937Z,65.20
2023-01-07T14:01:07.796Z,65.46
2023-01-07T14:05:19.447Z,65.47
2023-01-07T14:09:37.508Z,65.58
2023-01-07T14:14:05.300Z,66.10
2023-01-07T14:18:57.166Z,66.02
2023-01-07T14:23:22.638Z,66.29
2023-01-07T14:27:53.528Z,66.05
2023-01-07T14:32:23.279Z,66.20
2023-01-07T14:37:00.902Z,66.38
2023-01-07T14:41:17.861Z,66.96
2023-01-07T14:45:41.773Z,67.08
2023-01-07T14:50:11.883Z,67.61
2023-01-07T14:54:49.410Z,67.82
2023-01-07T14:59:26.057Z,67.65
2023-01-07T15:04:35.827Z,68.42
2023-01-07T15:09:22.539Z,68.36
2023-01-07T15:13:59.665Z,68.81
2023-01-07T15:18:12.713Z,69.03
2023-01-07T15:22:31.866Z,68.45
2023-01-07T15:27:02.048Z,68.79
2023-01-07T15:31:21.278Z,68.79
2023-01-07T15:35:39.384Z,68.62
2023-01-07T15:39:57.939Z,68.66
2023-01-07T15:44:32.619Z,68.61
2023-01-07T15:48:44.169Z,68.44
2023-01-07T15:52:57.540Z,68.87
2023-01-07T15:57:31.784Z,68.83
2023-01-07T16:01:49.502Z,68.98
2023-01-07T16:06:01.731Z,68.93
2023-01-07T16:10:39.651Z,68.55
2023-01-07T16:14:51.625Z,68.78
2023-01-07T16:19:04.346Z,69.89
2023-01-07T16:23:21.446Z,70.54
2023-01-07T16:27:33.100Z,70.99
2023-01-07T16:31:45.232Z,70.83
2023-01-07T16:36:01.127Z,71.18
2023-01-07T16:40:21.104Z,71.12
2023-01-07T16:44:44.936Z,71.07
2023-01-07T16:49:11.777Z,70.94
2023-01-07T16:53:33.542Z,71.12
2023-01-07T16:57:47.911Z,71.05
2023-01-07T17:02:21.280Z,71.18
2023-01-07T17:06:43.376Z,71.47
2023-01-07T17:11:02.245Z,72.12
2023-01-07T17:15:46.227Z,72.92
2023-01-07T17:20:13.491Z,73.87
2023-01-07T17:24:28.221Z,74.18
2023-01-07T17:28:50.498Z,75.48
2023-01-07T17:33:02.519Z,77.27
2023-01-07T17:37:15.898Z,78.33
2023-01-07T17:41:46.047Z,79.20
2023-01-07T17:45:57.900Z,81.20
2023-01-07T17:50:12.772Z,81.77
2023-01-07T17:54:25.486Z,82.61
2023-01-07T17:58:38.295Z,82.92
2023-01-07T18:02:51.183Z,84.00
2023-01-07T18:07:02.870Z,84.47
2023-01-07T18:11:36.071Z,84.94
2023-01-07T18:15:47.747Z,84.98
2023-01-07T18:19:59.364Z,85.13
2023-01-07T18:24:19.700Z,85.26
2023-01-07T18:28:31.733Z,85.17
2023-01-07T18:32:43.964Z,85.41
2023-01-07T18:36:55.582Z,85.13
2023-01-07T18:41:07.361Z,85.62
2023-01-07T18:45:19.133Z,85.36
2023-01-07T18:49:30.734Z,85.42
2023-01-07T18:53:42.308Z,85.58
2023-01-07T18:57:53.949Z,85.31
2023-01-07T19:02:08.853Z,85.17
2023-01-07T19:06:20.520Z,85.05
2023-01-07T19:10:32.191Z,84.92
2023-01-07T19:14:43.781Z,84.58
2023-01-07T19:18:55.349Z,84.55
2023-01-07T19:23:06.985Z,84.35
2023-01-07T19:27:18.610Z,84.20
2023-01-07T19:31:30.223Z,84.06
2023-01-07T19:35:41.791Z,83.79
2023-01-07T19:39:53.495Z,83.53
2023-01-07T19:44:05.151Z,83.42
2023-01-07T19:48:16.740Z,82.95
2023-01-07T19:52:28.366Z,82.84
2023-01-07T19:56:40.655Z,82.80
2023-01-07T20:00:52.319Z,82.64
2023-01-07T20:05:04.154Z,82.43
2023-01-07T20:09:15.934Z,82.30
2023-01-07T20:13:29.659Z,81.92
2023-01-07T20:17:41.300Z,81.76
2023-01-07T20:21:52.896Z,81.72
2023-01-07T20:26:08.929Z,81.85
2023-01-07T20:30:20.593Z,81.65
2023-01-07T20:34:32.207Z,81.79
2023-01-07T20:38:45.182Z,81.46
2023-01-07T20:42:58.767Z,81.10
2023-01-07T20:47:10.377Z,81.38
2023-01-07T20:51:22.462Z,81.65
2023-01-07T20:55:35.413Z,81.25
2023-01-07T20:59:47.045Z,81.50
2023-01-07T21:03:58.728Z,81.90
2023-01-07T21:08:10.641Z,82.60
2023-01-07T21:12:22.258Z,82.78
2023-01-07T21:16:34.012Z,83.60
2023-01-07T21:20:46.480Z,83.88
2023-01-07T21:24:58.123Z,83.85
2023-01-07T21:29:09.943Z,84.10
2023-01-07T21:33:21.551Z,84.19
2023-01-07T21:37:33.183Z,84.18
2023-01-07T21:41:44.775Z,84.26
2023-01-07T21:46:00.024Z,84.36
2023-01-07T21:50:14.759Z,84.38
2023-01-07T21:54:26.512Z,84.49
2023-01-07T21:58:39.048Z,84.51
2023-01-07T22:02:50.712Z,84.28
2023-01-07T22:07:02.326Z,84.51
2023-01-07T22:11:15.331Z,84.47
2023-01-07T22:15:27.014Z,84.35
2023-01-07T22:19:38.759Z,84.42
2023-01-07T22:23:50.708Z,84.30
2023-01-07T22:28:04.596Z,84.53
2023-01-07T22:32:16.142Z,84.60
2023-01-07T22:36:49.454Z,84.71
2023-01-07T22:41:03.252Z,84.81
2023-01-07T22:45:21.168Z,84.45
2023-01-07T22:49:33.233Z,85.08
2023-01-07T22:53:45.060Z,85.05
2023-01-07T22:57:56.646Z,85.10
2023-01-07T23:02:08.280Z,85.49
2023-01-07T23:06:20.051Z,86.18
2023-01-07T23:10:38.435Z,86.09
2023-01-07T23:14:50.029Z,86.17
2023-01-07T23:19:01.640Z,86.45
2023-01-07T23:23:13.216Z,86.71
2023-01-07T23:27:24.759Z,86.75
2023-01-07T23:31:37.472Z,86.86
2023-01-07T23:35:49.037Z,87.20
2023-01-07T23:40:00.569Z,87.52
2023-01-07T23:44:12.064Z,87.19
2023-01-07T23:48:23.837Z,87.38
2023-01-07T23:52:35.378Z,87.33
2023-01-07T23:56:48.572Z,87.09
